KBED/BED METAR and TAF weather

Enter ICAO airport designator
Station Type Date Time Source
KBED METAR 2021/01/17 19:51 UTC NOAA

KBED 171951Z 27021G31KT 10SM SCT050 06/M04 A2943 RMK AO2 PK WND 25031/1951 SLP979 T00611039


Station Type Date Time Source
KBED Decoded METAR 2021/01/17 19:51 UTC NOAA

BEDFORD HANSCOM FIELD, MA, United States (KBED) 42-28N 071-18W 50M
Jan 17, 2021 - 02:51 PM EST / 2021.01.17 1951 UTC
Wind: from the W (270 degrees) at 24 MPH (21 KT) gusting to 36 MPH (31 KT):0
Visibility: 10 mile(s):0
Sky conditions: partly cloudy
Temperature: 43.0 F (6.1 C)
Dew Point: 25.0 F (-3.9 C)
Relative Humidity: 48%
Pressure (altimeter): 29.43 in. Hg (996 hPa)
ob: KBED 171951Z 27021G31KT 10SM SCT050 06/M04 A2943 RMK AO2 PK WND 25031/1951 SLP979 T00611039
cycle: 20

Station Type Date Time Source
KBED TAF 2021/01/17 18:40 UTC NOAA

TAF KBED 171738Z 1718/1818 25019G36KT P6SM BKN050
FM172100 25016G29KT P6SM BKN040
FM180000 25012G22KT P6SM FEW040
FM180400 24009KT P6SM FEW070
FM181300 23007KT P6SM SCT080
FM181500 25011G20KT P6SM SCT120

Example: see airport list